Time;durP1;ratioP1;P1;durP2;ratioP2;P2;SDS_P1;SDS_P2;PMS_P1;PMS_P2;Temp;Humidity;BMP_temperature;BMP_pressure;BME280_temperature;BME280_humidity;BME280_pressure;Samples;Min_cycle;Max_cycle;Signal;HPM_P1;HPM_P2
2021/12/14 00:02:08;;;;;;;10.13;4.78;;;-0.60;99.90;;;;;;4926982;29;20090;-83
2021/12/14 00:04:35;;;;;;;3.78;3.13;;;-1.90;99.90;;;;;;4928130;29;20074;-84
2021/12/14 00:07:06;;;;;;;4.78;3.88;;;-1.20;99.90;;;;;;4926522;29;20040;-83
2021/12/14 00:09:36;;;;;;;3.58;2.72;;;-2.60;99.90;;;;;;4922226;29;20064;-80
2021/12/14 00:15:09;;;;;;;8.30;3.80;;;0.40;99.90;;;;;;4937020;29;20069;-83
2021/12/14 00:20:16;;;;;;;3.47;2.65;;;-1.60;99.90;;;;;;4938818;28;20052;-81
2021/12/14 00:25:17;;;;;;;3.72;3.42;;;-1.70;99.90;;;;;;4970889;23;20567;-81
2021/12/14 00:27:43;;;;;;;4.10;3.65;;;-0.50;99.90;;;;;;4937671;29;20019;-81
2021/12/14 00:30:10;;;;;;;9.00;2.95;;;-1.00;99.90;;;;;;4951835;29;20034;-82
2021/12/14 00:32:37;;;;;;;9.50;5.22;;;-1.80;99.90;;;;;;4938353;28;20040;-85
2021/12/14 00:35:20;;;;;;;4.40;3.10;;;-0.40;99.90;;;;;;4938485;29;20416;-92
2021/12/14 00:37:51;;;;;;;4.43;3.45;;;-0.30;99.90;;;;;;4920984;29;20035;-85
2021/12/14 00:40:27;;;;;;;10.55;5.97;;;-1.30;99.90;;;;;;4939048;29;20023;-79
2021/12/14 00:42:55;;;;;;;3.15;2.55;;;-1.60;99.90;;;;;;4943462;29;20012;-82
2021/12/14 00:45:23;;;;;;;3.95;3.63;;;-1.40;99.90;;;;;;4943884;28;20025;-80
2021/12/14 00:47:49;;;;;;;5.05;2.92;;;1.10;99.90;;;;;;4941677;29;20079;-83
2021/12/14 00:50:16;;;;;;;16.42;4.50;;;-2.80;99.90;;;;;;4941092;29;20091;-81
2021/12/14 00:52:43;;;;;;;7.88;4.78;;;-1.00;99.90;;;;;;4944008;28;20055;-83
2021/12/14 00:57:39;;;;;;;11.75;6.45;;;-1.90;99.90;;;;;;4921224;29;20037;-83
2021/12/14 01:00:09;;;;;;;6.28;2.97;;;-0.80;99.90;;;;;;4899904;29;20059;-81
2021/12/14 01:02:36;;;;;;;6.85;4.85;;;-2.00;99.90;;;;;;4905403;29;20064;-80
2021/12/14 01:05:09;;;;;;;7.78;4.43;;;-1.90;99.90;;;;;;4913276;29;20029;-84
2021/12/14 01:07:35;;;;;;;9.20;4.75;;;-1.90;99.90;;;;;;4905584;29;20035;-86
2021/12/14 01:10:13;;;;;;;14.25;4.93;;;-1.40;99.90;;;;;;4904736;29;20028;-82
2021/12/14 01:12:48;;;;;;;5.05;2.97;;;-1.70;99.90;;;;;;4923951;29;20036;-82
2021/12/14 01:15:42;;;;;;;7.40;3.60;;;-2.10;99.90;;;;;;4921219;29;20032;-83
2021/12/14 01:18:27;;;;;;;5.55;4.20;;;-1.50;99.90;;;;;;4921566;29;20033;-87
2021/12/14 01:20:59;;;;;;;7.53;4.50;;;-1.20;99.90;;;;;;4901733;29;20083;-87
2021/12/14 01:23:32;;;;;;;3.88;3.38;;;-1.60;99.90;;;;;;4921860;29;20036;-83
2021/12/14 01:26:07;;;;;;;5.55;5.07;;;-1.70;99.90;;;;;;4926505;29;20222;-91
2021/12/14 01:28:34;;;;;;;6.32;3.75;;;-1.10;99.90;;;;;;4908187;29;20034;-82
2021/12/14 01:31:19;;;;;;;5.32;3.80;;;-0.50;99.90;;;;;;4938723;29;20031;-82
2021/12/14 01:33:56;;;;;;;4.55;3.35;;;-1.00;99.90;;;;;;4938324;29;20095;-82
2021/12/14 01:36:27;;;;;;;5.10;3.25;;;-1.90;99.90;;;;;;4938387;29;20032;-83
2021/12/14 01:42:13;;;;;;;5.15;4.70;;;-2.40;99.90;;;;;;4866935;29;20053;-88
2021/12/14 01:44:42;;;;;;;8.95;5.40;;;-1.60;99.90;;;;;;4943077;29;20031;-80
2021/12/14 01:47:39;;;;;;;10.52;4.72;;;-1.10;99.90;;;;;;4914013;29;20023;-82
2021/12/14 01:50:11;;;;;;;8.70;4.55;;;-1.80;99.90;;;;;;4917674;29;20028;-83
2021/12/14 01:52:49;;;;;;;7.38;4.85;;;-0.90;99.90;;;;;;4919027;29;20075;-92
2021/12/14 01:55:20;;;;;;;12.82;6.07;;;-0.90;99.90;;;;;;4918843;29;20388;-85
2021/12/14 01:57:46;;;;;;;9.00;4.55;;;-1.10;99.90;;;;;;4918170;29;20047;-78
2021/12/14 02:00:25;;;;;;;5.75;3.92;;;-0.90;99.90;;;;;;4934240;29;20036;-82
2021/12/14 02:02:51;;;;;;;7.40;4.07;;;-1.20;99.90;;;;;;4921947;29;20056;-82
2021/12/14 02:05:28;;;;;;;7.15;5.20;;;-1.90;99.90;;;;;;4912970;29;20028;-79
2021/12/14 02:07:57;;;;;;;5.00;3.22;;;-1.90;99.90;;;;;;4909272;29;20485;-79
2021/12/14 02:10:29;;;;;;;11.52;5.05;;;-2.20;99.90;;;;;;4919033;29;20060;-86
2021/12/14 02:12:55;;;;;;;8.10;4.13;;;-2.20;99.90;;;;;;4918778;29;20047;-82
2021/12/14 02:15:28;;;;;;;15.07;4.60;;;-2.30;99.90;;;;;;4923641;29;20106;-82
2021/12/14 02:17:56;;;;;;;9.73;5.60;;;-2.10;99.90;;;;;;4904678;29;20036;-79
2021/12/14 02:20:28;;;;;;;18.38;3.47;;;-2.40;99.90;;;;;;4916215;29;20091;-77
2021/12/14 02:22:54;;;;;;;9.43;5.18;;;-1.50;99.90;;;;;;4915042;29;20539;-77
2021/12/14 02:25:20;;;;;;;10.13;6.65;;;-2.10;99.90;;;;;;4914973;29;20212;-77
2021/12/14 02:27:50;;;;;;;9.63;6.25;;;-2.20;99.90;;;;;;4915268;29;20035;-77
2021/12/14 02:30:27;;;;;;;13.82;7.28;;;-2.50;99.90;;;;;;4898555;29;20024;-77
2021/12/14 02:32:53;;;;;;;6.93;4.15;;;-2.60;99.90;;;;;;4898839;29;20047;-81
2021/12/14 02:35:21;;;;;;;12.82;4.72;;;-1.60;99.90;;;;;;4916725;29;20035;-79
2021/12/14 02:37:52;;;;;;;8.00;5.13;;;-2.70;99.90;;;;;;4916612;29;20387;-77
2021/12/14 02:40:20;;;;;;;12.18;6.43;;;-1.60;99.90;;;;;;4916568;29;20079;-78
2021/12/14 02:42:50;;;;;;;12.07;5.57;;;-2.40;99.90;;;;;;4898878;29;20494;-78
2021/12/14 02:45:20;;;;;;;4.18;3.78;;;-1.60;99.90;;;;;;4899283;29;20131;-79
2021/12/14 02:47:46;;;;;;;9.10;4.93;;;-2.60;99.90;;;;;;4915685;29;20028;-77
2021/12/14 02:50:12;;;;;;;6.18;4.05;;;-2.80;99.90;;;;;;4915746;29;20043;-79
2021/12/14 02:52:38;;;;;;;8.02;3.30;;;-2.90;99.90;;;;;;4899015;29;20520;-77
2021/12/14 02:55:15;;;;;;;6.32;3.63;;;-3.00;99.90;;;;;;4915736;29;20039;-77
2021/12/14 02:57:58;;;;;;;8.48;4.47;;;-3.10;99.90;;;;;;5110361;27;20752;-75
2021/12/14 03:00:33;;;;;;;7.60;5.88;;;-2.90;99.90;;;;;;5110336;28;20024;-76
2021/12/14 03:03:00;;;;;;;8.90;4.28;;;-2.20;99.90;;;;;;5110323;28;20046;-75
2021/12/14 03:05:33;;;;;;;2.90;2.58;;;-2.90;99.90;;;;;;5110279;28;20023;-75
2021/12/14 03:08:13;;;;;;;14.63;4.65;;;-3.10;99.90;;;;;;5110371;28;20031;-76
2021/12/14 03:10:57;;;;;;;8.10;4.45;;;-3.00;99.90;;;;;;5108764;28;20549;-75
2021/12/14 03:13:27;;;;;;;7.82;4.30;;;-2.50;99.90;;;;;;5109376;28;20395;-76
2021/12/14 03:15:56;;;;;;;11.50;4.68;;;-2.90;99.90;;;;;;5116787;28;20054;-76
2021/12/14 03:18:37;;;;;;;12.63;4.47;;;-2.60;99.90;;;;;;5110954;28;20027;-76
2021/12/14 03:21:23;;;;;;;5.22;4.13;;;-2.80;99.90;;;;;;5112473;28;20031;-76
2021/12/14 03:23:56;;;;;;;7.15;2.92;;;-2.90;99.90;;;;;;5116101;28;20024;-76
2021/12/14 03:26:26;;;;;;;8.70;5.22;;;-2.80;99.90;;;;;;5112668;28;20069;-75
2021/12/14 03:28:56;;;;;;;8.05;4.35;;;-2.00;99.90;;;;;;5119711;28;20039;-76
2021/12/14 03:31:32;;;;;;;4.05;3.72;;;-1.80;99.90;;;;;;5117966;28;20396;-76
2021/12/14 03:34:23;;;;;;;10.55;6.72;;;-2.90;99.90;;;;;;5119136;28;20024;-77
2021/12/14 03:36:51;;;;;;;5.55;3.67;;;-2.30;99.90;;;;;;5118716;28;20120;-77
2021/12/14 03:39:25;;;;;;;8.82;4.28;;;-2.20;99.90;;;;;;5117726;28;20019;-76
2021/12/14 03:41:58;;;;;;;7.78;3.80;;;-2.30;99.90;;;;;;5119422;28;20026;-76
2021/12/14 03:44:28;;;;;;;10.40;4.93;;;-2.40;99.90;;;;;;5116668;28;20016;-76
2021/12/14 03:47:14;;;;;;;7.72;4.00;;;-2.50;99.90;;;;;;5110765;28;20024;-75
2021/12/14 03:49:47;;;;;;;10.40;4.25;;;-2.60;99.90;;;;;;5109985;28;20376;-75
2021/12/14 03:52:28;;;;;;;7.90;5.63;;;-2.60;99.90;;;;;;5108850;28;20031;-75
2021/12/14 03:54:54;;;;;;;8.00;5.35;;;-2.90;99.90;;;;;;5111554;28;20036;-75
2021/12/14 03:57:21;;;;;;;8.15;4.50;;;-3.00;99.90;;;;;;5111902;28;20487;-75
2021/12/14 03:59:47;;;;;;;10.95;5.18;;;-3.00;99.90;;;;;;5118415;28;20031;-75
2021/12/14 04:02:17;;;;;;;5.25;4.13;;;-2.20;99.90;;;;;;5118031;28;20031;-76
2021/12/14 04:04:53;;;;;;;9.95;4.40;;;-1.70;99.90;;;;;;5117246;28;20050;-76
2021/12/14 04:07:20;;;;;;;11.02;4.05;;;-1.80;99.90;;;;;;5115570;28;20376;-75
2021/12/14 04:09:46;;;;;;;8.40;6.18;;;-2.70;99.90;;;;;;5100656;28;20031;-76
2021/12/14 04:12:16;;;;;;;13.20;4.00;;;-2.20;99.90;;;;;;5097678;28;20024;-75
2021/12/14 04:14:46;;;;;;;10.20;3.17;;;-2.90;99.90;;;;;;5098347;28;20024;-76
2021/12/14 04:17:12;;;;;;;6.60;5.55;;;-2.80;99.90;;;;;;5096110;28;20036;-76
2021/12/14 04:19:39;;;;;;;4.15;3.00;;;-2.70;99.90;;;;;;5096784;28;20254;-76
2021/12/14 04:22:09;;;;;;;9.25;5.25;;;-3.10;99.90;;;;;;5095969;28;20024;-76
2021/12/14 04:24:39;;;;;;;12.07;3.72;;;-2.60;99.90;;;;;;5097215;28;20051;-76
2021/12/14 04:27:09;;;;;;;17.83;5.60;;;-2.00;99.90;;;;;;5097725;28;20020;-76
2021/12/14 04:29:35;;;;;;;10.10;5.57;;;-1.70;99.90;;;;;;5098726;28;20020;-75
2021/12/14 04:32:02;;;;;;;6.20;2.92;;;-2.00;99.90;;;;;;5099509;28;20317;-75
2021/12/14 04:34:31;;;;;;;5.45;3.78;;;-3.20;99.90;;;;;;5099514;28;20046;-75
2021/12/14 04:36:57;;;;;;;9.60;4.20;;;-2.00;99.90;;;;;;5101326;28;20036;-76
2021/12/14 04:53:38;;;;;;;5.15;3.38;;;-3.30;99.90;;;;;;5103209;28;20106;-76
2021/12/14 04:56:08;;;;;;;11.48;3.55;;;-3.20;99.90;;;;;;5099336;28;20044;-76
2021/12/14 04:58:37;;;;;;;8.13;4.65;;;-3.10;99.90;;;;;;5102220;28;20027;-76
2021/12/14 05:01:06;;;;;;;6.65;3.75;;;-1.60;99.90;;;;;;5102210;28;20020;-76
2021/12/14 05:03:38;;;;;;;5.20;3.97;;;-2.50;99.90;;;;;;5103601;28;20028;-76
2021/12/14 05:11:12;;;;;;;8.13;4.82;;;-2.50;99.90;;;;;;5103426;28;20020;-76
2021/12/14 05:13:40;;;;;;;5.78;3.75;;;-2.40;99.90;;;;;;5102797;28;20373;-76
2021/12/14 05:16:07;;;;;;;15.15;4.07;;;-1.80;99.90;;;;;;5102110;28;20032;-76
2021/12/14 05:18:34;;;;;;;9.63;4.82;;;-1.70;99.90;;;;;;5103960;28;20031;-76
2021/12/14 05:21:00;;;;;;;4.93;4.32;;;-2.20;99.90;;;;;;5100676;28;20166;-77
2021/12/14 05:23:32;;;;;;;6.00;3.70;;;-1.60;99.90;;;;;;5103331;28;20085;-75
2021/12/14 05:26:02;;;;;;;8.52;5.47;;;-1.20;99.90;;;;;;5101799;28;20227;-76
2021/12/14 05:28:28;;;;;;;10.05;4.45;;;-2.10;99.90;;;;;;5103910;28;20023;-77
2021/12/14 05:30:58;;;;;;;7.38;4.55;;;-1.90;99.90;;;;;;5100953;28;20028;-76
2021/12/14 05:33:30;;;;;;;4.60;2.78;;;-1.50;99.90;;;;;;5100312;28;20051;-76
2021/12/14 05:35:59;;;;;;;8.15;5.30;;;-2.50;99.90;;;;;;5104227;28;20039;-75
2021/12/14 05:38:44;;;;;;;4.60;4.18;;;-1.50;99.90;;;;;;5103861;28;20098;-76
2021/12/14 05:43:05;;;;;;;5.40;4.78;;;-1.20;99.90;;;;;;5101368;28;20031;-75
2021/12/14 05:43:57;;;;;;;4.75;3.47;;;-2.40;99.90;;;;;;5100562;28;20031;-76
2021/12/14 05:46:23;;;;;;;9.07;5.25;;;-2.40;99.90;;;;;;5100576;28;20020;-75
2021/12/14 05:48:59;;;;;;;8.68;4.88;;;-2.40;99.90;;;;;;5097741;28;20490;-76
2021/12/14 05:51:28;;;;;;;8.63;4.70;;;-2.40;99.90;;;;;;5099997;28;20026;-75
2021/12/14 05:53:53;;;;;;;48.60;6.32;;;-2.40;99.90;;;;;;5094024;28;20024;-76
2021/12/14 05:56:23;;;;;;;3.42;2.25;;;-2.40;99.90;;;;;;5108409;28;20035;-75
2021/12/14 05:58:51;;;;;;;7.10;3.45;;;-2.20;99.90;;;;;;5096029;28;20023;-75
2021/12/14 06:01:20;;;;;;;5.60;4.90;;;-2.20;99.90;;;;;;5095663;28;20491;-76
2021/12/14 06:04:02;;;;;;;9.57;4.55;;;-1.80;99.90;;;;;;5103663;28;20240;-75
2021/12/14 06:06:43;;;;;;;11.93;6.28;;;-1.80;99.90;;;;;;5105056;28;20051;-76
2021/12/14 06:09:21;;;;;;;8.02;4.80;;;-1.70;99.90;;;;;;5123990;28;20475;-76
2021/12/14 06:11:52;;;;;;;4.60;3.95;;;-1.70;99.90;;;;;;5095660;28;20027;-76
2021/12/14 06:14:20;;;;;;;10.38;5.47;;;-1.90;99.90;;;;;;5112757;28;20020;-77
2021/12/14 06:16:49;;;;;;;7.90;4.18;;;-1.90;99.90;;;;;;5111279;28;20487;-76
2021/12/14 06:19:34;;;;;;;6.15;4.50;;;-2.10;99.90;;;;;;5094481;28;20023;-75
2021/12/14 06:22:04;;;;;;;5.68;2.47;;;-2.10;99.90;;;;;;5093890;28;20391;-76
2021/12/14 06:24:33;;;;;;;8.23;2.80;;;-2.10;99.90;;;;;;5112694;28;20480;-78
2021/12/14 06:27:02;;;;;;;8.38;4.15;;;-1.90;99.90;;;;;;5095421;28;20027;-75
2021/12/14 06:29:40;;;;;;;7.18;4.97;;;-1.80;99.90;;;;;;5113183;28;20085;-76
2021/12/14 06:32:28;;;;;;;6.50;4.22;;;-1.50;99.90;;;;;;5113221;28;20030;-75
2021/12/14 06:34:58;;;;;;;7.65;4.00;;;-2.10;99.90;;;;;;5113906;28;20027;-75
2021/12/14 06:40:30;;;;;;;4.68;4.25;;;-1.90;99.90;;;;;;5122410;28;20027;-77
2021/12/14 06:43:03;;;;;;;11.88;6.18;;;-1.90;99.90;;;;;;5102854;28;20020;-76
2021/12/14 06:45:38;;;;;;;5.22;4.22;;;-1.90;99.90;;;;;;5123157;28;20048;-76
2021/12/14 06:48:11;;;;;;;5.78;4.22;;;-1.90;99.90;;;;;;5102285;28;20596;-76
2021/12/14 06:50:42;;;;;;;6.25;4.72;;;-1.80;99.90;;;;;;5104278;28;20050;-77
2021/12/14 06:53:14;;;;;;;7.68;4.78;;;-1.70;99.90;;;;;;5124307;28;20024;-75
2021/12/14 06:55:40;;;;;;;8.30;5.43;;;-1.80;99.90;;;;;;5100564;28;20024;-76
2021/12/14 06:58:06;;;;;;;14.15;7.40;;;-2.00;99.90;;;;;;5113389;28;20035;-76
2021/12/14 07:00:32;;;;;;;10.18;5.75;;;-1.00;99.90;;;;;;5113660;28;20031;-76
2021/12/14 07:02:58;;;;;;;17.13;5.95;;;-2.10;99.90;;;;;;5113226;28;20035;-76
2021/12/14 07:05:29;;;;;;;12.50;7.13;;;-2.00;99.90;;;;;;5115344;28;20023;-77
2021/12/14 07:07:57;;;;;;;11.48;6.93;;;-1.70;99.90;;;;;;5105740;28;20535;-76
2021/12/14 07:10:23;;;;;;;8.20;3.40;;;-2.00;99.90;;;;;;5123647;28;20024;-76
2021/12/14 07:12:51;;;;;;;9.65;6.78;;;-1.30;99.90;;;;;;5102196;28;20029;-76
2021/12/14 07:15:27;;;;;;;8.63;6.05;;;-1.60;99.90;;;;;;5102801;28;20019;-75
2021/12/14 07:18:03;;;;;;;9.38;6.10;;;-1.70;99.90;;;;;;5105216;28;20032;-76
2021/12/14 07:20:38;;;;;;;13.70;6.40;;;-1.00;99.90;;;;;;5096810;28;20022;-75
2021/12/14 07:23:28;;;;;;;8.73;5.03;;;-1.50;99.90;;;;;;5094870;28;20024;-76
2021/12/14 07:26:00;;;;;;;10.98;3.33;;;-1.30;99.90;;;;;;5113428;28;20031;-75
2021/12/14 07:28:40;;;;;;;9.63;3.65;;;-1.50;99.90;;;;;;5094099;28;20027;-76
2021/12/14 07:31:25;;;;;;;;;;;-1.30;99.90;;;;;;5106425;28;20462;-76
2021/12/14 07:33:58;;;;;;;9.07;5.70;;;-1.00;99.90;;;;;;5112454;28;20325;-76
2021/12/14 07:36:31;;;;;;;9.07;4.50;;;-1.20;99.90;;;;;;5097018;28;20043;-76
2021/12/14 07:39:03;;;;;;;8.70;4.72;;;-1.30;99.90;;;;;;5115105;28;20248;-76
2021/12/14 07:41:32;;;;;;;12.82;8.00;;;-1.10;99.90;;;;;;5095778;28;20049;-76
2021/12/14 07:44:05;;;;;;;9.70;6.88;;;-0.40;99.90;;;;;;5101857;28;20023;-78
2021/12/14 07:46:40;;;;;;;6.35;4.32;;;-1.50;99.90;;;;;;5097617;28;20035;-76
2021/12/14 07:49:29;;;;;;;6.38;5.55;;;-1.50;99.90;;;;;;5099002;28;20093;-76
2021/12/14 07:52:10;;;;;;;7.38;5.30;;;-1.40;99.90;;;;;;5122887;28;20349;-76
2021/12/14 07:54:40;;;;;;;7.97;4.65;;;-1.40;99.90;;;;;;5116472;28;20059;-76
2021/12/14 07:57:23;;;;;;;9.50;5.60;;;-1.40;99.90;;;;;;5101482;28;20111;-76
2021/12/14 08:00:11;;;;;;;11.48;5.95;;;-1.40;99.90;;;;;;5097400;28;20089;-76
2021/12/14 08:02:44;;;;;;;8.95;5.80;;;-1.40;99.90;;;;;;5093015;28;20028;-77
2021/12/14 08:05:15;;;;;;;11.05;7.60;;;-1.20;99.90;;;;;;5086874;28;20174;-77
2021/12/14 08:07:57;;;;;;;9.68;5.55;;;-0.90;99.90;;;;;;5091938;28;20052;-76
2021/12/14 08:10:32;;;;;;;12.30;5.68;;;-0.70;99.90;;;;;;5092725;28;20472;-76
2021/12/14 08:13:13;;;;;;;7.20;4.20;;;0.90;99.90;;;;;;5093043;28;20472;-75
2021/12/14 08:15:41;;;;;;;6.32;4.53;;;-0.60;99.90;;;;;;5091920;28;20034;-76
2021/12/14 08:18:14;;;;;;;9.25;5.15;;;-0.90;99.90;;;;;;5091084;28;20124;-76
2021/12/14 08:20:55;;;;;;;7.55;5.38;;;-0.80;99.90;;;;;;5094421;28;20494;-76
2021/12/14 08:23:32;;;;;;;13.02;4.15;;;-0.90;99.90;;;;;;5086202;28;20032;-76
2021/12/14 08:26:09;;;;;;;9.68;5.97;;;-1.00;99.90;;;;;;5091159;28;20119;-76
2021/12/14 08:29:00;;;;;;;9.05;3.33;;;-0.90;99.90;;;;;;5090627;28;20107;-76
2021/12/14 08:31:40;;;;;;;8.35;4.93;;;-0.80;99.90;;;;;;5091132;28;20085;-77
2021/12/14 08:34:08;;;;;;;;;;;-0.60;99.90;;;;;;5092583;28;20024;-78
2021/12/14 08:36:36;;;;;;;6.38;4.82;;;-0.50;99.90;;;;;;5092807;28;20379;-77
2021/12/14 08:39:27;;;;;;;10.70;5.50;;;-0.50;99.90;;;;;;5079944;28;20028;-77
2021/12/14 08:42:11;;;;;;;12.13;7.15;;;-0.40;99.90;;;;;;5078089;28;20438;-78
2021/12/14 08:44:40;;;;;;;8.82;6.78;;;-0.40;99.90;;;;;;5082135;28;20486;-78
2021/12/14 08:47:10;;;;;;;8.82;5.82;;;-0.30;99.90;;;;;;5078684;28;20024;-78
2021/12/14 08:49:37;;;;;;;9.10;5.50;;;-0.20;99.90;;;;;;5071806;28;20604;-78
2021/12/14 08:52:04;;;;;;;10.18;6.05;;;-0.10;99.90;;;;;;5072813;28;20182;-77
2021/12/14 08:54:32;;;;;;;10.73;7.35;;;-0.10;99.90;;;;;;5073419;28;20107;-77
2021/12/14 08:57:01;;;;;;;11.93;7.85;;;-0.30;99.90;;;;;;5081033;28;20041;-76
2021/12/14 08:59:28;;;;;;;7.90;6.32;;;-0.30;99.90;;;;;;5090586;28;20055;-76
2021/12/14 09:01:55;;;;;;;8.90;6.65;;;0.70;99.90;;;;;;5091732;28;20046;-78
2021/12/14 09:04:26;;;;;;;6.38;5.63;;;0.80;99.90;;;;;;5086259;28;20020;-77
2021/12/14 09:06:56;;;;;;;29.08;9.95;;;1.20;99.90;;;;;;5091508;28;20048;-77
2021/12/14 09:09:23;;;;;;;13.38;7.97;;;0.40;99.90;;;;;;5091687;28;20028;-77
2021/12/14 09:11:58;;;;;;;18.88;7.28;;;0.20;99.90;;;;;;5091849;28;20028;-77
2021/12/14 09:14:24;;;;;;;11.43;6.13;;;0.20;99.90;;;;;;5092462;28;20020;-78
2021/12/14 09:16:54;;;;;;;9.48;7.20;;;0.30;99.90;;;;;;5100787;28;20107;-81
2021/12/14 09:19:48;;;;;;;8.48;5.95;;;0.50;99.90;;;;;;5090827;28;20066;-81
2021/12/14 09:22:29;;;;;;;7.30;5.88;;;1.20;99.90;;;;;;5075438;28;20036;-80
2021/12/14 09:24:55;;;;;;;11.23;6.28;;;0.80;99.90;;;;;;5078735;28;20046;-78
2021/12/14 09:27:25;;;;;;;9.93;4.90;;;1.00;99.90;;;;;;5078538;28;20532;-76
2021/12/14 09:29:52;;;;;;;11.13;6.03;;;1.00;99.90;;;;;;5079099;28;20036;-77
2021/12/14 09:32:25;;;;;;;10.05;5.65;;;1.10;99.90;;;;;;5072590;28;20504;-78
2021/12/14 09:34:52;;;;;;;12.25;6.38;;;1.30;99.90;;;;;;5071176;28;20469;-78
2021/12/14 09:37:20;;;;;;;12.85;6.10;;;1.40;99.90;;;;;;5072082;28;20047;-79
2021/12/14 09:39:51;;;;;;;12.95;6.43;;;1.60;99.90;;;;;;5074028;28;20020;-80
2021/12/14 09:42:22;;;;;;;10.45;6.35;;;1.60;99.90;;;;;;5070583;28;20024;-77
2021/12/14 09:44:50;;;;;;;10.60;4.47;;;1.70;99.90;;;;;;5071585;28;20039;-80
2021/12/14 09:47:20;;;;;;;10.90;5.32;;;1.60;99.90;;;;;;5070223;28;20020;-76
2021/12/14 09:49:49;;;;;;;9.57;5.75;;;1.60;99.90;;;;;;5072716;28;20020;-83
2021/12/14 09:52:21;;;;;;;14.07;7.15;;;2.70;99.90;;;;;;5072230;28;20036;-77
2021/12/14 09:54:49;;;;;;;11.63;5.85;;;1.90;99.90;;;;;;5070308;28;20427;-77
2021/12/14 09:57:38;;;;;;;19.17;6.78;;;2.00;99.90;;;;;;5085856;28;20048;-77
2021/12/14 10:00:15;;;;;;;9.43;6.60;;;2.30;99.90;;;;;;5073493;28;20017;-76
2021/12/14 10:02:43;;;;;;;8.73;5.55;;;2.30;99.90;;;;;;5074479;28;20033;-77
2021/12/14 10:05:33;;;;;;;11.50;6.93;;;2.20;99.90;;;;;;5075846;28;20016;-76
2021/12/14 10:08:00;;;;;;;12.73;5.32;;;2.20;99.90;;;;;;5094063;28;20078;-77
2021/12/14 10:10:31;;;;;;;15.88;6.25;;;2.00;99.90;;;;;;5094908;28;20233;-76
2021/12/14 10:12:57;;;;;;;12.05;7.55;;;1.80;99.90;;;;;;5084720;28;20404;-80
2021/12/14 10:15:29;;;;;;;13.73;6.72;;;2.90;99.90;;;;;;5076938;28;20054;-77
2021/12/14 10:18:00;;;;;;;15.60;6.30;;;1.70;99.90;;;;;;5078253;28;20039;-76
2021/12/14 10:20:32;;;;;;;12.80;5.82;;;1.60;99.90;;;;;;5076197;28;20384;-77
2021/12/14 10:23:00;;;;;;;14.35;6.20;;;1.70;99.90;;;;;;5077113;28;20479;-77
2021/12/14 10:25:27;;;;;;;15.70;7.85;;;1.80;99.90;;;;;;5075885;28;20018;-77
2021/12/14 10:27:57;;;;;;;15.65;8.90;;;2.10;99.90;;;;;;5103846;28;20016;-77
2021/12/14 10:30:32;;;;;;;9.05;4.82;;;2.50;99.90;;;;;;5084403;28;20126;-77
2021/12/14 10:33:00;;;;;;;9.20;5.90;;;2.90;99.90;;;;;;5074995;28;20020;-76
2021/12/14 10:35:36;;;;;;;11.95;6.72;;;3.10;99.90;;;;;;5074360;28;20020;-77
2021/12/14 10:38:15;;;;;;;12.43;7.28;;;3.00;99.90;;;;;;5094774;28;20139;-78
2021/12/14 10:43:30;;;;;;;12.43;6.45;;;3.10;99.90;;;;;;5096877;28;20231;-77
2021/12/14 10:45:59;;;;;;;11.88;5.82;;;3.20;99.90;;;;;;5076449;28;20020;-77
2021/12/14 10:48:30;;;;;;;10.05;5.40;;;3.10;99.90;;;;;;5077979;28;20028;-77
2021/12/14 10:50:58;;;;;;;10.70;5.38;;;2.90;99.90;;;;;;5082324;28;20300;-76
2021/12/14 10:53:28;;;;;;;10.98;6.22;;;2.80;99.90;;;;;;5083435;28;20024;-77
2021/12/14 10:56:13;;;;;;;;;;;2.60;99.90;;;;;;5084116;28;20523;-77
2021/12/14 10:58:43;;;;;;;11.52;5.53;;;2.90;99.90;;;;;;5075498;28;20375;-78
2021/12/14 11:01:16;;;;;;;9.82;4.85;;;3.00;99.90;;;;;;5096665;28;20110;-80
2021/12/14 11:03:46;;;;;;;11.13;5.85;;;3.00;99.90;;;;;;5072984;28;20059;-77
2021/12/14 11:06:15;;;;;;;9.40;5.13;;;3.10;99.90;;;;;;5095019;28;20012;-77
2021/12/14 11:11:36;;;;;;;9.55;4.57;;;3.30;99.90;;;;;;5099317;28;20031;-76
2021/12/14 11:14:06;;;;;;;;;;;3.40;99.90;;;;;;5084438;28;20028;-77
2021/12/14 11:19:40;;;;;;;9.35;5.03;;;3.50;99.90;;;;;;5111406;28;20068;-78
2021/12/14 11:22:17;;;;;;;9.27;5.30;;;3.40;99.90;;;;;;5099040;28;20015;-76
2021/12/14 11:24:47;;;;;;;12.85;5.53;;;3.50;99.90;;;;;;5103079;28;20113;-76
2021/12/14 11:27:15;;;;;;;6.32;4.68;;;3.60;99.90;;;;;;5122182;28;20207;-78
2021/12/14 11:29:41;;;;;;;9.48;4.70;;;3.70;99.90;;;;;;5107489;28;20050;-81
2021/12/14 11:32:14;;;;;;;10.52;6.22;;;3.60;99.90;;;;;;5107738;28;20276;-81
2021/12/14 11:34:40;;;;;;;8.00;5.10;;;3.60;99.90;;;;;;5106624;28;20020;-79
2021/12/14 11:37:14;;;;;;;14.00;7.43;;;3.90;99.90;;;;;;5124561;28;20366;-78
2021/12/14 11:39:46;;;;;;;13.68;4.80;;;4.00;99.90;;;;;;5105798;28;20024;-77
2021/12/14 11:42:23;;;;;;;11.45;5.85;;;4.20;99.90;;;;;;5120432;28;20311;-77
2021/12/14 11:45:08;;;;;;;9.60;5.35;;;4.20;99.90;;;;;;5120898;28;20037;-76
2021/12/14 11:47:53;;;;;;;7.05;5.25;;;4.30;99.90;;;;;;5116029;28;20055;-76
2021/12/14 11:50:22;;;;;;;9.75;5.63;;;4.50;99.90;;;;;;5121524;28;20057;-82
2021/12/14 11:53:05;;;;;;;9.57;5.93;;;4.40;99.90;;;;;;5108319;28;20045;-82
2021/12/14 11:55:48;;;;;;;16.80;7.97;;;4.40;99.90;;;;;;5103109;28;20220;-79
2021/12/14 11:58:25;;;;;;;11.30;5.57;;;4.50;99.90;;;;;;5103996;28;20043;-80
2021/12/14 12:01:02;;;;;;;8.98;6.18;;;4.70;99.90;;;;;;5123490;28;20035;-76
2021/12/14 12:03:42;;;;;;;8.75;5.65;;;4.50;99.90;;;;;;5103447;28;20026;-76
2021/12/14 12:09:28;;;;;;;12.13;5.25;;;4.40;99.90;;;;;;5103437;28;20031;-76
2021/12/14 12:09:32;;;;;;;9.27;5.72;;;4.30;99.90;;;;;;5121027;28;20024;-77
2021/12/14 12:12:04;;;;;;;8.65;4.95;;;4.50;99.90;;;;;;5103085;28;20145;-78
2021/12/14 12:15:08;;;;;;;12.00;6.20;;;4.50;99.90;;;;;;5102339;28;20088;-76
2021/12/14 12:17:48;;;;;;;9.57;4.93;;;4.50;99.90;;;;;;5090505;28;20047;-79
2021/12/14 12:20:27;;;;;;;8.35;5.85;;;4.60;99.90;;;;;;5090875;28;20073;-76
2021/12/14 12:22:54;;;;;;;11.13;6.38;;;4.70;99.90;;;;;;5090010;28;20090;-79
2021/12/14 12:25:20;;;;;;;8.55;5.40;;;4.90;99.90;;;;;;5073624;28;20111;-76
2021/12/14 12:28:11;;;;;;;9.75;5.93;;;5.10;99.90;;;;;;5093013;28;20453;-78
2021/12/14 12:30:38;;;;;;;10.40;6.05;;;5.40;99.90;;;;;;5060649;28;20314;-76
2021/12/14 12:33:15;;;;;;;14.93;8.52;;;5.50;99.90;;;;;;5096931;28;20472;-80
2021/12/14 12:35:55;;;;;;;16.58;7.07;;;5.60;99.90;;;;;;5076333;28;20021;-79
2021/12/14 12:38:39;;;;;;;10.80;4.75;;;5.50;99.90;;;;;;5084917;28;20040;-79
2021/12/14 12:41:27;;;;;;;7.30;3.40;;;5.60;99.90;;;;;;5097111;28;20031;-80
2021/12/14 12:44:08;;;;;;;8.85;4.57;;;5.70;99.90;;;;;;5078747;28;20491;-75
2021/12/14 12:46:49;;;;;;;8.82;4.72;;;5.70;99.90;;;;;;5078660;28;20055;-80
2021/12/14 12:49:20;;;;;;;8.38;4.40;;;5.70;99.90;;;;;;5072823;28;20255;-76
2021/12/14 12:52:08;;;;;;;10.77;4.93;;;5.70;99.90;;;;;;5078437;28;20028;-77
2021/12/14 12:54:33;;;;;;;8.30;5.13;;;5.70;99.90;;;;;;5078737;28;20275;-82
2021/12/14 12:57:08;;;;;;;6.80;3.80;;;5.70;99.90;;;;;;5095337;28;20191;-76
2021/12/14 12:59:41;;;;;;;7.93;4.55;;;5.80;99.90;;;;;;5070280;28;20032;-78
2021/12/14 13:02:17;;;;;;;8.80;4.35;;;5.90;99.90;;;;;;5093175;28;20507;-77
2021/12/14 13:04:47;;;;;;;13.98;4.82;;;7.20;99.90;;;;;;5091927;28;20106;-76
2021/12/14 13:07:13;;;;;;;19.80;3.88;;;6.20;99.90;;;;;;5072837;28;20034;-77
2021/12/14 13:10:03;;;;;;;6.45;4.72;;;6.60;99.90;;;;;;5074084;28;20020;-79
2021/12/14 13:12:57;;;;;;;11.20;5.05;;;7.50;99.90;;;;;;5077546;28;20020;-80
2021/12/14 13:15:38;;;;;;;10.95;5.47;;;8.10;99.90;;;;;;5069531;28;20028;-75
2021/12/14 13:18:21;;;;;;;10.75;6.10;;;9.00;99.90;;;;;;5086550;28;20035;-78
2021/12/14 13:20:49;;;;;;;8.73;5.35;;;9.30;99.90;;;;;;5069240;28;20439;-79
2021/12/14 13:23:15;;;;;;;9.18;5.85;;;9.70;99.90;;;;;;5068135;28;20400;-78
2021/12/14 13:25:43;;;;;;;15.93;5.38;;;9.60;99.90;;;;;;5086353;28;20024;-77
2021/12/14 13:28:12;;;;;;;9.25;5.32;;;10.30;99.90;;;;;;5068102;28;20098;-79
2021/12/14 13:30:38;;;;;;;11.10;5.85;;;10.60;99.90;;;;;;5068899;28;20032;-78
2021/12/14 13:33:03;;;;;;;7.28;4.50;;;10.50;99.90;;;;;;5067628;28;20510;-78
2021/12/14 13:35:35;;;;;;;11.98;5.70;;;10.20;99.90;;;;;;5086364;28;20058;-77
2021/12/14 13:38:07;;;;;;;7.65;5.07;;;9.80;99.90;;;;;;5068591;28;20059;-76
2021/12/14 13:40:38;;;;;;;10.70;5.25;;;9.50;99.90;;;;;;5068211;28;20035;-77
2021/12/14 13:43:09;;;;;;;11.77;6.90;;;9.30;99.90;;;;;;5072161;28;20020;-77
2021/12/14 13:45:38;;;;;;;8.43;4.47;;;9.20;99.90;;;;;;5105568;28;20024;-80
2021/12/14 13:48:06;;;;;;;10.15;5.72;;;8.90;99.90;;;;;;5106131;28;20416;-82
2021/12/14 13:50:45;;;;;;;8.63;4.93;;;8.10;99.90;;;;;;5086863;28;20028;-77
2021/12/14 13:53:11;;;;;;;9.38;4.18;;;7.60;99.90;;;;;;5086509;28;20024;-82
2021/12/14 13:55:39;;;;;;;10.65;5.53;;;7.60;99.90;;;;;;5086767;28;20391;-77
2021/12/14 13:58:11;;;;;;;7.43;4.40;;;7.40;99.90;;;;;;5086292;28;20051;-80
2021/12/14 14:00:41;;;;;;;10.70;5.55;;;7.70;99.90;;;;;;5104847;28;20031;-80
2021/12/14 14:03:07;;;;;;;;;;;7.90;99.90;;;;;;5087977;28;20055;-78